Time;durP1;ratioP1;P1;durP2;ratioP2;P2;SDS_P1;SDS_P2;PMS_P1;PMS_P2;Temp;Humidity;BMP_temperature;BMP_pressure;BME280_temperature;BME280_humidity;BME280_pressure;Samples;Min_cycle;Max_cycle;Signal;HPM_P1;HPM_P2
2022/12/24 02:12:06;;;;;;;23.70;13.32;;;;;;;-0.01;100.00;100345.97;1851602;76;28944;-93
2022/12/24 02:14:51;;;;;;;22.95;11.10;;;;;;;0.09;100.00;100341.49;1806379;78;21052;-92
2022/12/24 02:18:04;;;;;;;27.30;12.33;;;;;;;0.13;100.00;100336.83;1813405;78;21024;-90
2022/12/24 02:21:03;;;;;;;27.70;12.70;;;;;;;0.26;100.00;100346.69;1807450;78;21041;-90
2022/12/24 02:24:25;;;;;;;24.70;12.55;;;;;;;0.36;100.00;100342.19;1786760;80;21448;-91
2022/12/24 02:27:30;;;;;;;24.40;12.15;;;;;;;0.41;100.00;100345.06;1786253;80;21009;-91
2022/12/24 02:30:25;;;;;;;23.22;11.57;;;;;;;0.47;100.00;100338.84;1786439;80;21009;-91
2022/12/24 02:33:21;;;;;;;25.60;12.10;;;;;;;0.53;100.00;100343.33;1792944;78;21024;-92
2022/12/24 02:36:32;;;;;;;26.97;12.45;;;;;;;0.63;100.00;100346.90;1801390;78;21016;-90
2022/12/24 02:39:22;;;;;;;22.22;11.97;;;;;;;0.70;100.00;100331.55;1786834;78;21500;-91
2022/12/24 02:42:07;;;;;;;25.37;11.97;;;;;;;0.73;100.00;100338.36;1787089;78;21033;-91
2022/12/24 02:45:01;;;;;;;23.52;12.73;;;;;;;0.73;100.00;100337.83;1805617;78;20996;-90
2022/12/24 02:47:46;;;;;;;28.00;12.35;;;;;;;0.80;100.00;100336.45;1774492;78;20994;-91
2022/12/24 02:50:31;;;;;;;25.32;11.57;;;;;;;0.88;100.00;100338.05;1812165;78;21076;-91
2022/12/24 02:53:15;;;;;;;25.45;11.83;;;;;;;0.93;100.00;100339.03;1811254;78;20907;-91
2022/12/24 02:56:32;;;;;;;24.87;12.00;;;;;;;0.94;100.00;100342.53;1818767;78;20969;-90
2022/12/24 02:59:47;;;;;;;26.42;11.75;;;;;;;1.02;100.00;100346.33;1793556;78;21071;-91
2022/12/24 03:03:06;;;;;;;23.00;11.55;;;;;;;1.07;100.00;100343.80;1798731;78;21001;-92
2022/12/24 03:05:51;;;;;;;19.35;9.88;;;;;;;1.02;100.00;100345.80;1818768;78;21485;-91
2022/12/24 03:08:44;;;;;;;19.20;9.88;;;;;;;1.08;100.00;100349.47;1790720;78;20989;-90
2022/12/24 03:11:30;;;;;;;23.12;11.03;;;;;;;1.14;100.00;100342.37;1812895;78;20956;-91
2022/12/24 03:14:15;;;;;;;20.70;10.18;;;;;;;1.14;100.00;100347.77;1806765;78;20993;-91
2022/12/24 03:17:00;;;;;;;16.12;9.33;;;;;;;1.21;100.00;100357.45;1815574;78;21055;-93
2022/12/24 03:19:44;;;;;;;19.42;9.25;;;;;;;1.25;100.00;100355.95;1791538;78;21024;-92
2022/12/24 03:22:31;;;;;;;23.42;9.90;;;;;;;1.28;100.00;100352.81;1815330;78;21052;-92
2022/12/24 03:25:16;;;;;;;18.50;9.63;;;;;;;1.30;100.00;100347.22;1771567;78;21036;-92
2022/12/24 03:28:02;;;;;;;19.85;9.60;;;;;;;1.21;100.00;100336.42;1815049;78;21610;-92
2022/12/24 03:30:47;;;;;;;20.30;9.93;;;;;;;1.15;100.00;100339.48;1795035;78;21629;-93
2022/12/24 03:33:33;;;;;;;21.25;9.28;;;;;;;1.19;100.00;100343.39;1801733;78;21016;-91
2022/12/24 03:36:18;;;;;;;18.90;10.23;;;;;;;1.10;100.00;100348.73;1795431;78;20982;-92
2022/12/24 03:39:04;;;;;;;22.10;9.90;;;;;;;1.15;100.00;100339.48;1791387;78;21036;-91
2022/12/24 03:41:49;;;;;;;20.68;10.05;;;;;;;1.14;100.00;100339.69;1791735;78;21012;-92
2022/12/24 03:44:33;;;;;;;19.35;10.32;;;;;;;1.12;100.00;100329.16;1773690;79;21374;-92
2022/12/24 03:47:18;;;;;;;21.15;10.58;;;;;;;1.19;100.00;100324.55;1756026;80;20985;-92
2022/12/24 03:50:03;;;;;;;20.20;10.43;;;;;;;1.21;100.00;100325.16;1766384;80;21014;-92
2022/12/24 03:52:48;;;;;;;20.92;10.38;;;;;;;1.13;100.00;100317.87;1787331;80;20998;-92
2022/12/24 03:55:32;;;;;;;21.55;9.80;;;;;;;1.12;100.00;100322.95;1771920;80;21149;-93
2022/12/24 03:58:17;;;;;;;20.95;9.65;;;;;;;1.17;100.00;100329.32;1769160;80;21014;-91
2022/12/24 04:01:01;;;;;;;22.05;10.78;;;;;;;1.20;100.00;100322.67;1756296;81;21045;-93
2022/12/24 04:03:46;;;;;;;20.15;9.58;;;;;;;1.23;100.00;100335.69;1815089;78;20984;-93
2022/12/24 04:06:30;;;;;;;20.62;10.30;;;;;;;1.26;100.00;100333.39;1818269;78;20981;-93
2022/12/24 04:09:15;;;;;;;23.32;10.95;;;;;;;1.28;100.00;100340.70;1800769;78;21004;-92
2022/12/24 04:11:59;;;;;;;23.22;11.55;;;;;;;1.34;100.00;100339.02;1767247;79;21029;-92
2022/12/24 04:14:44;;;;;;;20.40;10.78;;;;;;;1.41;100.00;100339.78;1786203;80;20969;-92
2022/12/24 04:17:29;;;;;;;23.30;10.72;;;;;;;1.36;100.00;100335.58;1798151;79;20998;-92
2022/12/24 04:20:13;;;;;;;20.52;10.80;;;;;;;1.36;100.00;100346.34;1784695;80;21025;-92
2022/12/24 04:22:58;;;;;;;19.57;11.05;;;;;;;1.40;100.00;100346.72;1767161;80;21029;-92
2022/12/24 04:25:43;;;;;;;21.40;11.20;;;;;;;1.40;100.00;100352.10;1783901;79;21032;-92
2022/12/24 04:28:28;;;;;;;20.48;11.03;;;;;;;1.36;100.00;100345.50;1787105;79;20974;-94
2022/12/24 04:31:15;;;;;;;22.27;10.28;;;;;;;1.35;100.00;100339.30;1815562;78;21434;-92
2022/12/24 04:33:59;;;;;;;22.10;11.10;;;;;;;1.35;100.00;100330.41;1816224;78;20993;-93
2022/12/24 04:36:44;;;;;;;18.55;10.32;;;;;;;1.35;100.00;100329.06;1761892;80;21085;-93
2022/12/24 04:39:29;;;;;;;17.95;9.75;;;;;;;1.38;100.00;100329.42;1758982;80;20977;-95
2022/12/24 04:42:13;;;;;;;20.10;9.85;;;;;;;1.37;100.00;100329.67;1777633;80;20990;-93
2022/12/24 04:44:58;;;;;;;23.07;10.80;;;;;;;1.41;100.00;100325.47;1786816;78;21525;-93
2022/12/24 04:47:42;;;;;;;22.70;10.43;;;;;;;1.47;100.00;100316.52;1769007;80;20997;-92
2022/12/24 04:50:27;;;;;;;21.97;10.32;;;;;;;1.52;100.00;100315.32;1798151;78;21002;-94
2022/12/24 04:53:13;;;;;;;26.33;10.88;;;;;;;1.58;100.00;100330.58;1813030;78;21013;-92
2022/12/24 04:55:58;;;;;;;18.95;9.68;;;;;;;1.61;100.00;100327.45;1815520;78;21061;-92
2022/12/24 04:58:43;;;;;;;24.57;11.60;;;;;;;1.64;100.00;100313.53;1787447;80;20978;-94
2022/12/24 05:01:30;;;;;;;20.35;10.15;;;;;;;1.68;100.00;100312.05;1802418;78;20977;-95
2022/12/24 05:04:14;;;;;;;20.68;10.82;;;;;;;1.63;100.00;100324.02;1773846;80;21014;-92
2022/12/24 05:06:59;;;;;;;24.55;12.10;;;;;;;1.61;100.00;100319.38;1778491;80;20975;-93
2022/12/24 05:09:43;;;;;;;24.43;11.50;;;;;;;1.63;100.00;100324.02;1771157;80;21068;-92
2022/12/24 05:12:28;;;;;;;23.73;11.45;;;;;;;1.65;100.00;100322.44;1784240;80;21010;-93
2022/12/24 05:15:13;;;;;;;19.82;11.38;;;;;;;1.64;100.00;100319.45;1808977;79;21041;-92
2022/12/24 05:17:57;;;;;;;20.48;10.90;;;;;;;1.63;100.00;100319.13;1775374;80;21006;-93
2022/12/24 05:20:42;;;;;;;22.27;12.30;;;;;;;1.64;100.00;100314.88;1756149;80;21836;-93
2022/12/24 05:26:44;;;;;;;25.35;12.28;;;;;;;1.65;100.00;100311.66;1763800;80;20994;-95
2022/12/24 05:29:28;;;;;;;23.80;11.60;;;;;;;1.61;100.00;100302.40;1812739;78;21003;-93
2022/12/24 05:32:13;;;;;;;25.48;13.18;;;;;;;1.51;100.00;100309.64;1726607;80;21006;-93
2022/12/24 05:34:57;;;;;;;24.05;12.90;;;;;;;1.53;100.00;100312.91;1786088;80;20994;-93
2022/12/24 05:37:42;;;;;;;26.65;12.58;;;;;;;1.56;100.00;100312.49;1815397;79;20971;-92
2022/12/24 05:40:27;;;;;;;26.42;11.60;;;;;;;1.55;100.00;100305.44;1780033;80;21038;-93
2022/12/24 05:43:11;;;;;;;26.60;12.05;;;;;;;1.58;100.00;100310.38;1806323;77;21622;-95
2022/12/24 05:46:00;;;;;;;26.82;12.30;;;;;;;1.65;100.00;100320.55;1815387;78;20989;-93
2022/12/24 05:48:45;;;;;;;23.42;12.28;;;;;;;1.65;100.00;100322.44;1817826;78;21004;-93
2022/12/24 05:51:30;;;;;;;22.40;10.78;;;;;;;1.64;100.00;100319.45;1811592;78;21033;-94
2022/12/24 05:54:15;;;;;;;27.27;11.30;;;;;;;1.66;100.00;100322.22;1818049;78;20981;-93
2022/12/24 05:56:59;;;;;;;24.07;12.05;;;;;;;1.66;100.00;100322.22;1794278;78;20994;-92
2022/12/24 05:59:44;;;;;;;23.35;11.73;;;;;;;1.66;100.00;100318.71;1788644;78;20984;-93
2022/12/24 08:16:16;;;;;;;17.42;8.88;;;;;;;2.71;100.00;100358.84;1795677;78;81873;-87
2022/12/24 08:19:07;;;;;;;18.23;9.70;;;;;;;2.86;100.00;100353.02;1716218;81;20958;-88
2022/12/24 08:21:54;;;;;;;19.77;9.85;;;;;;;2.99;100.00;100350.14;1655575;82;21002;-91
2022/12/24 08:24:42;;;;;;;19.15;9.38;;;;;;;3.10;100.00;100353.09;1715612;81;21623;-90
2022/12/24 08:27:29;;;;;;;17.90;9.83;;;;;;;3.12;100.00;100352.33;1662405;82;20989;-90
2022/12/24 08:30:15;;;;;;;21.55;9.70;;;;;;;3.22;100.00;100345.83;1699442;82;21206;-91
2022/12/24 08:33:26;;;;;;;17.75;9.00;;;;;;;3.24;100.00;100357.22;1718673;82;20983;-90
2022/12/24 08:36:30;;;;;;;19.52;9.60;;;;;;;3.34;100.00;100348.52;1684464;83;21483;-91
2022/12/24 08:39:18;;;;;;;17.87;9.45;;;;;;;3.32;100.00;100347.41;1675959;83;21008;-89
2022/12/24 08:42:05;;;;;;;18.00;9.53;;;;;;;3.35;100.00;100342.07;1711153;82;21104;-90
2022/12/24 08:44:52;;;;;;;17.30;9.35;;;;;;;3.40;100.00;100347.05;1717820;82;21044;-90
2022/12/24 08:47:39;;;;;;;18.60;9.28;;;;;;;3.47;100.00;100346.13;1704492;82;21067;-90
2022/12/24 08:50:25;;;;;;;18.35;8.85;;;;;;;3.44;100.00;100346.08;1690315;82;21845;-91
2022/12/24 08:53:13;;;;;;;17.90;9.48;;;;;;;3.53;100.00;100338.42;1675077;84;21105;-90
2022/12/24 08:56:02;;;;;;;17.00;8.60;;;;;;;3.56;100.00;100343.35;1646427;85;21605;-90
2022/12/24 08:58:50;;;;;;;17.95;9.20;;;;;;;3.71;100.00;100340.16;1683219;83;20982;-90
2022/12/24 09:01:38;;;;;;;19.92;9.25;;;;;;;3.71;100.00;100335.61;1665052;83;21821;-91
2022/12/24 09:04:25;;;;;;;19.98;9.73;;;;;;;3.80;100.00;100340.11;1736535;81;21597;-91
2022/12/24 09:07:15;;;;;;;20.00;9.73;;;;;;;3.82;100.00;100339.34;1732366;82;21084;-90
2022/12/24 09:10:04;;;;;;;17.52;9.20;;;;;;;3.84;100.00;100340.75;1703259;82;21123;-92
2022/12/24 09:12:50;;;;;;;17.65;8.05;;;;;;;3.92;100.00;100341.45;1721306;82;21127;-92
2022/12/24 09:15:35;;;;;;;15.10;8.08;;;;;;;4.06;100.00;100330.66;1671982;83;21060;-92
2022/12/24 09:18:23;;;;;;;16.20;9.05;;;;;;;4.12;100.00;100325.64;1680546;84;21005;-93
2022/12/24 09:21:17;;;;;;;17.65;8.85;;;;;;;4.21;100.00;100326.09;1730780;81;20974;-91
2022/12/24 09:24:06;;;;;;;16.42;8.48;;;;;;;4.22;100.00;100321.78;1690081;83;20995;-93
2022/12/24 09:26:51;;;;;;;15.32;8.93;;;;;;;4.34;100.00;100314.16;1690938;83;21013;-92
2022/12/24 09:29:39;;;;;;;18.40;8.33;;;;;;;4.40;100.00;100315.89;1674945;82;20997;-91
2022/12/24 09:32:24;;;;;;;17.45;8.53;;;;;;;4.44;100.00;100312.46;1722919;82;21004;-93
2022/12/24 09:35:10;;;;;;;15.85;8.20;;;;;;;4.36;100.00;100317.45;1656771;83;21077;-93
2022/12/24 09:38:05;;;;;;;15.32;8.60;;;;;;;4.41;100.00;100310.25;1682113;83;21046;-93
2022/12/24 09:40:43;;;;;;;16.42;8.63;;;;;;;4.53;100.00;100315.61;1675204;83;21053;-92
2022/12/24 09:43:30;;;;;;;18.48;9.78;;;;;;;4.58;100.00;100310.83;1702176;83;21150;-92
2022/12/24 09:46:36;;;;;;;21.95;11.10;;;;;;;4.61;100.00;100309.80;1705653;82;21560;-93
2022/12/24 09:49:35;;;;;;;21.55;10.55;;;;;;;4.63;100.00;100304.97;1697387;83;21073;-92
2022/12/24 09:52:31;;;;;;;19.45;10.25;;;;;;;4.64;100.00;100309.30;1704485;82;21114;-91
2022/12/24 09:55:27;;;;;;;18.30;9.13;;;;;;;4.77;100.00;100303.30;1707870;83;21156;-92
2022/12/24 09:58:23;;;;;;;16.77;9.43;;;;;;;4.83;100.00;100299.62;1685085;83;21045;-91
2022/12/24 10:01:14;;;;;;;22.87;10.48;;;;;;;4.94;100.00;100295.47;1723230;82;21015;-93
2022/12/24 10:04:08;;;;;;;19.40;9.85;;;;;;;4.96;100.00;100295.23;1664087;83;21033;-93
2022/12/24 10:07:19;;;;;;;16.85;9.65;;;;;;;4.97;100.00;100291.47;1725427;82;21000;-93
2022/12/24 10:10:24;;;;;;;20.50;9.48;;;;;;;4.98;100.00;100290.39;1660848;83;21550;-91
2022/12/24 10:13:33;;;;;;;18.20;9.03;;;;;;;5.08;100.00;100290.55;1711046;82;21092;-92
2022/12/24 10:16:55;;;;;;;20.05;9.40;;;;;;;5.12;100.00;100294.42;1679639;82;21045;-92
2022/12/24 10:20:29;;;;;;;16.50;7.92;;;;;;;5.18;100.00;100298.02;1676169;84;21082;-93
2022/12/24 10:23:51;;;;;;;16.17;8.93;;;;;;;5.26;100.00;100287.30;1699048;83;21035;-92
2022/12/24 10:26:56;;;;;;;15.50;7.62;;;;;;;5.33;100.00;100283.88;1669199;83;21445;-93
2022/12/24 10:29:45;;;;;;;15.32;7.78;;;;;;;5.28;100.00;100280.56;1711160;83;21124;-92
2022/12/24 10:32:33;;;;;;;14.47;7.28;;;;;;;5.28;100.00;100279.75;1666763;83;21025;-92
2022/12/24 10:35:24;;;;;;;15.75;7.08;;;;;;;5.37;100.00;100285.04;1730451;82;21482;-93
2022/12/24 10:38:13;;;;;;;13.88;8.05;;;;;;;5.49;100.00;100278.98;1700518;82;21005;-91
2022/12/24 10:40:59;;;;;;;13.28;6.62;;;;;;;5.59;100.00;100279.12;1679140;82;21132;-92
2022/12/24 10:43:46;;;;;;;12.68;7.05;;;;;;;5.64;100.00;100277.02;1666891;84;21200;-92
2022/12/24 10:46:39;;;;;;;12.85;7.00;;;;;;;5.65;100.00;100280.53;1706487;82;21016;-93
2022/12/24 10:49:39;;;;;;;12.50;6.25;;;;;;;5.63;100.00;100271.83;1701266;82;21047;-93
2022/12/24 10:52:28;;;;;;;13.15;6.55;;;;;;;5.77;100.00;100273.92;1679311;84;21045;-93
2022/12/24 10:55:23;;;;;;;11.33;6.07;;;;;;;5.83;100.00;100274.80;1684223;83;21027;-93
2022/12/24 10:58:17;;;;;;;12.63;6.40;;;;;;;5.83;100.00;100272.08;1706529;82;21551;-93
2022/12/24 11:01:03;;;;;;;11.95;6.33;;;;;;;5.84;100.00;100276.45;1702976;83;21065;-92
2022/12/24 11:04:03;;;;;;;9.88;6.20;;;;;;;5.93;100.00;100276.81;1709980;83;21065;-92
2022/12/24 11:07:06;;;;;;;10.43;6.15;;;;;;;5.99;100.00;100275.30;1695649;83;21103;-93
2022/12/24 11:10:06;;;;;;;13.83;6.25;;;;;;;5.99;100.00;100283.45;1714865;83;21099;-92
2022/12/24 11:12:52;;;;;;;13.35;7.10;;;;;;;5.96;100.00;100269.55;1684557;83;20997;-92
2022/12/24 11:15:43;;;;;;;10.55;6.15;;;;;;;5.97;100.00;100280.70;1697338;83;21024;-94
2022/12/24 11:18:29;;;;;;;12.50;6.35;;;;;;;5.91;100.00;100283.86;1703976;82;21021;-94
2022/12/24 11:21:22;;;;;;;12.85;6.47;;;;;;;5.85;100.00;100279.44;1711378;83;21018;-93
2022/12/24 11:24:20;;;;;;;12.55;6.40;;;;;;;5.82;100.00;100280.77;1697771;83;21005;-92
2022/12/24 11:27:33;;;;;;;9.75;5.97;;;;;;;5.85;100.00;100278.63;1697529;82;21419;-92
2022/12/24 11:30:29;;;;;;;13.83;6.30;;;;;;;5.83;100.00;100281.58;1705262;83;21050;-92
2022/12/24 11:33:21;;;;;;;14.33;7.40;;;;;;;5.81;100.00;100284.55;1679433;84;21098;-92
2022/12/24 11:36:10;;;;;;;15.30;7.85;;;;;;;5.77;100.00;100288.02;1681469;83;20969;-92
2022/12/24 11:38:59;;;;;;;18.85;9.00;;;;;;;5.75;100.00;100280.13;1700050;83;21032;-92
2022/12/24 11:41:46;;;;;;;16.50;8.40;;;;;;;5.71;100.00;100283.58;1712208;82;21017;-92
2022/12/24 11:44:35;;;;;;;17.98;8.40;;;;;;;5.67;100.00;100281.11;1706088;82;21036;-91
2022/12/24 11:47:37;;;;;;;15.83;8.18;;;;;;;5.71;100.00;100289.00;1691921;83;21098;-92
2022/12/24 11:50:28;;;;;;;15.38;7.85;;;;;;;5.67;100.00;100291.41;1662686;83;21501;-92
2022/12/24 11:53:24;;;;;;;17.65;8.50;;;;;;;5.65;100.00;100285.95;1667243;85;21016;-91
2022/12/24 11:56:38;;;;;;;13.78;7.03;;;;;;;5.58;100.00;100288.30;1643379;85;21782;-93
2022/12/24 14:16:29;;;;;;;9.70;5.58;;;;;;;3.14;100.00;100381.25;1851694;76;22644;-89
2022/12/24 14:19:24;;;;;;;13.58;6.15;;;;;;;3.28;100.00;100383.22;1814993;78;21025;-89
2022/12/24 14:22:28;;;;;;;12.03;6.12;;;;;;;3.30;100.00;100383.28;1803606;78;21514;-90
2022/12/24 14:25:16;;;;;;;12.75;6.00;;;;;;;3.36;100.00;100381.02;1813019;78;21460;-92
2022/12/24 14:28:06;;;;;;;12.65;6.15;;;;;;;3.38;100.00;100394.27;1791264;78;21016;-90
2022/12/24 14:31:02;;;;;;;12.33;6.05;;;;;;;3.31;100.00;100394.36;1818678;78;20993;-88
2022/12/24 14:33:47;;;;;;;14.50;8.03;;;;;;;3.32;100.00;100401.44;1811724;78;21051;-89
2022/12/24 14:36:32;;;;;;;12.18;6.20;;;;;;;3.39;100.00;100401.33;1786560;80;21012;-89
2022/12/24 14:39:33;;;;;;;12.03;6.62;;;;;;;3.34;100.00;100397.13;1786406;80;21040;-89
2022/12/24 14:42:41;;;;;;;13.83;6.67;;;;;;;3.40;100.00;100404.31;1786810;80;20981;-89
2022/12/24 14:45:39;;;;;;;11.63;5.55;;;;;;;3.53;100.00;100412.72;1808284;78;20965;-89
2022/12/24 14:48:34;;;;;;;14.60;7.10;;;;;;;3.55;100.00;100405.21;1755352;80;21064;-89
2022/12/24 14:51:33;;;;;;;14.73;7.28;;;;;;;3.54;100.00;100403.58;1786577;80;21040;-89
2022/12/24 14:54:34;;;;;;;15.23;6.42;;;;;;;3.58;100.00;100401.50;1785787;78;21143;-90
2022/12/24 14:57:24;;;;;;;12.82;6.37;;;;;;;3.45;100.00;100401.20;1786516;80;21020;-89
2022/12/24 15:00:17;;;;;;;12.35;6.12;;;;;;;3.41;100.00;100402.75;1786409;80;21060;-90
2022/12/24 15:03:02;;;;;;;14.60;7.05;;;;;;;3.41;100.00;100401.39;1788306;78;20996;-89
2022/12/24 15:05:52;;;;;;;20.10;9.48;;;;;;;3.41;100.00;100405.45;1798689;78;20989;-89
2022/12/24 15:08:46;;;;;;;18.27;10.13;;;;;;;3.38;100.00;100408.59;1818957;78;21598;-90
2022/12/24 15:11:31;;;;;;;21.68;9.20;;;;;;;3.38;100.00;100407.23;1818778;78;21001;-91
2022/12/24 15:14:15;;;;;;;20.37;9.88;;;;;;;3.35;100.00;100410.41;1819330;78;21064;-89
2022/12/24 15:17:03;;;;;;;29.52;12.28;;;;;;;3.38;100.00;100408.59;1827840;78;21036;-90
2022/12/24 15:19:51;;;;;;;24.95;11.20;;;;;;;3.39;100.00;100412.95;1827942;78;20968;-89
2022/12/24 15:22:35;;;;;;;21.68;10.00;;;;;;;3.43;100.00;100412.77;1828175;78;21558;-90
2022/12/24 15:25:27;;;;;;;22.75;11.65;;;;;;;3.45;100.00;100421.46;1827967;78;21059;-89
2022/12/24 15:28:21;;;;;;;;;;;;;;;3.44;100.00;100430.64;1830382;78;21043;-89
2022/12/24 15:31:15;;;;;;;24.47;11.48;;;;;;;3.34;100.00;100424.98;1802180;78;20176;-89
2022/12/24 15:34:00;;;;;;;28.87;12.13;;;;;;;3.38;100.00;100423.98;1825965;78;21004;-90
2022/12/24 15:36:44;;;;;;;30.40;13.70;;;;;;;3.38;100.00;100424.80;1795781;78;21029;-90
2022/12/24 15:39:29;;;;;;;22.25;11.10;;;;;;;3.44;100.00;100436.04;1795460;78;20980;-91
2022/12/24 15:42:17;;;;;;;25.77;12.20;;;;;;;3.50;100.00;100433.45;1794725;79;21004;-89
2022/12/24 15:45:06;;;;;;;29.77;11.60;;;;;;;3.57;100.00;100432.83;1770903;79;21056;-90
2022/12/24 15:47:57;;;;;;;31.65;13.25;;;;;;;3.58;100.00;100426.35;1794875;79;21036;-90
2022/12/24 15:50:57;;;;;;;27.52;14.68;;;;;;;3.54;100.00;100423.31;1795444;78;21005;-91
2022/12/24 15:53:45;;;;;;;29.12;14.28;;;;;;;3.51;100.00;100426.98;1800837;78;20996;-90
2022/12/24 15:56:33;;;;;;;29.35;13.88;;;;;;;3.48;100.00;100426.11;1730248;81;21000;-91
2022/12/24 15:59:26;;;;;;;26.05;14.38;;;;;;;3.62;100.00;100428.89;1800171;79;21023;-90
2022/12/24 16:02:41;;;;;;;28.17;14.47;;;;;;;3.66;100.00;100433.60;1806572;78;20995;-90
2022/12/24 16:05:35;;;;;;;31.12;14.85;;;;;;;3.68;100.00;100435.23;1794023;79;21626;-89
2022/12/24 16:08:22;;;;;;;31.23;14.80;;;;;;;3.76;100.00;100433.02;1773392;80;20977;-89
2022/12/24 16:11:17;;;;;;;28.83;13.90;;;;;;;3.72;100.00;100433.19;1802562;78;21019;-89
2022/12/24 16:14:13;;;;;;;29.70;13.70;;;;;;;3.70;100.00;100433.94;1772401;80;21490;-89
2022/12/24 16:16:57;;;;;;;27.60;13.88;;;;;;;3.71;100.00;100431.55;1735517;82;20957;-89
2022/12/24 16:19:46;;;;;;;26.42;12.60;;;;;;;3.72;100.00;100433.19;1756708;80;21745;-90
2022/12/24 16:22:30;;;;;;;31.20;14.58;;;;;;;3.66;100.00;100438.19;1751283;80;20991;-89
2022/12/24 16:25:24;;;;;;;33.18;16.00;;;;;;;3.71;100.00;100422.09;1787861;78;20998;-89
2022/12/24 16:28:10;;;;;;;34.03;17.05;;;;;;;3.69;100.00;100428.25;1786362;80;21010;-89
2022/12/24 16:30:55;;;;;;;30.90;13.55;;;;;;;3.62;100.00;100432.95;1787958;80;20997;-91
2022/12/24 16:33:39;;;;;;;29.10;16.57;;;;;;;3.62;100.00;100437.81;1787997;79;20978;-92
2022/12/24 16:36:24;;;;;;;33.88;17.07;;;;;;;3.75;100.00;100431.36;1758069;78;21010;-90
2022/12/24 16:39:22;;;;;;;32.80;16.82;;;;;;;3.70;100.00;100433.94;1756959;80;21077;-89
2022/12/24 16:45:09;;;;;;;;;;;;;;;3.65;100.00;100435.17;1764243;80;21420;-90
2022/12/24 16:47:58;;;;;;;29.00;13.65;;;;;;;3.61;100.00;100441.59;1732415;81;20142;-89
2022/12/24 16:50:43;;;;;;;28.52;13.03;;;;;;;3.55;100.00;100445.73;1756748;80;20986;-91
2022/12/24 16:53:27;;;;;;;22.00;12.15;;;;;;;3.57;100.00;100442.28;1757472;80;21006;-90
2022/12/24 16:56:11;;;;;;;41.25;18.10;;;;;;;3.59;100.00;100445.58;1756929;80;21018;-89
2022/12/24 16:58:56;;;;;;;31.07;17.48;;;;;;;3.62;100.00;100443.75;1757161;80;21607;-89
2022/12/24 17:01:40;;;;;;;30.52;15.43;;;;;;;3.68;100.00;100446.86;1756746;80;20995;-90
2022/12/24 17:04:25;;;;;;;32.98;15.63;;;;;;;3.69;100.00;100449.88;1763127;80;21034;-91
2022/12/24 17:07:11;;;;;;;32.35;15.58;;;;;;;3.65;100.00;100455.44;1712449;82;21037;-89
2022/12/24 17:09:56;;;;;;;36.42;17.10;;;;;;;3.61;100.00;100455.10;1725356;81;21559;-90
2022/12/24 17:12:42;;;;;;;39.58;16.62;;;;;;;3.59;100.00;100459.09;1735931;81;21060;-89
2022/12/24 17:15:27;;;;;;;39.15;16.45;;;;;;;3.54;100.00;100463.02;1741087;79;21042;-90
2022/12/24 17:18:12;;;;;;;41.10;17.80;;;;;;;3.52;100.00;100463.78;1745494;81;20980;-91
2022/12/24 17:20:59;;;;;;;41.77;17.73;;;;;;;3.53;100.00;100464.06;1725394;83;20990;-90
2022/12/24 17:23:43;;;;;;;47.15;21.55;;;;;;;3.51;100.00;100458.06;1744443;81;21080;-91
2022/12/24 17:26:30;;;;;;;43.80;19.05;;;;;;;3.50;100.00;100459.12;1740692;81;20972;-90
2022/12/24 17:29:15;;;;;;;42.58;17.48;;;;;;;3.49;100.00;100461.02;1739173;82;20977;-88
2022/12/24 17:32:00;;;;;;;42.58;20.90;;;;;;;3.48;100.00;100459.34;1724546;81;21037;-89
2022/12/24 17:34:44;;;;;;;53.58;20.85;;;;;;;3.52;100.00;100457.02;1740377;82;21562;-90
2022/12/24 17:37:29;;;;;;;51.77;21.68;;;;;;;3.50;100.00;100460.48;1740927;82;21052;-90
2022/12/24 17:40:14;;;;;;;49.25;21.45;;;;;;;3.53;100.00;100466.76;1756953;80;21097;-90
2022/12/24 17:42:58;;;;;;;49.10;19.95;;;;;;;3.49;100.00;100464.22;1762432;80;21006;-90
2022/12/24 17:45:43;;;;;;;54.40;20.90;;;;;;;3.52;100.00;100468.64;1757106;80;21010;-89
2022/12/24 17:48:27;;;;;;;42.30;17.23;;;;;;;3.65;100.00;100464.91;1757396;81;21054;-90
2022/12/24 17:51:13;;;;;;;39.40;18.30;;;;;;;3.67;100.00;100464.14;1715430;81;21053;-90
2022/12/24 17:53:59;;;;;;;46.28;18.82;;;;;;;3.62;100.00;100466.19;1757392;80;21504;-88
2022/12/24 17:56:44;;;;;;;43.55;20.15;;;;;;;3.63;100.00;100466.47;1756911;80;21042;-91
2022/12/24 20:15:54;;;;;;;55.65;17.75;;;;;;;2.68;100.00;100562.20;1855085;76;21976;-84
2022/12/24 20:18:38;;;;;;;47.00;15.48;;;;;;;2.76;100.00;100563.25;1803906;78;21030;-84
2022/12/24 20:21:23;;;;;;;51.68;14.95;;;;;;;2.84;100.00;100568.33;1795464;78;20994;-84
2022/12/24 20:24:07;;;;;;;59.40;16.17;;;;;;;2.95;100.00;100569.48;1795568;79;20998;-85
2022/12/24 20:26:52;;;;;;;53.90;16.17;;;;;;;3.03;100.00;100572.39;1795521;78;20990;-84
2022/12/24 20:29:37;;;;;;;61.48;18.75;;;;;;;3.09;100.00;100574.17;1794865;79;20983;-85
2022/12/24 20:32:21;;;;;;;57.38;20.37;;;;;;;3.12;100.00;100576.44;1792539;79;21013;-85
2022/12/24 20:35:08;;;;;;;70.87;25.62;;;;;;;3.16;100.00;100566.28;1769939;79;20999;-84
2022/12/24 20:37:53;;;;;;;62.15;24.07;;;;;;;3.28;100.00;100574.97;1770900;78;20990;-84
2022/12/24 20:40:44;;;;;;;47.50;17.80;;;;;;;3.39;100.00;100577.73;1770915;79;20963;-85
2022/12/24 20:43:31;;;;;;;37.05;14.73;;;;;;;3.45;100.00;100575.45;1764632;81;27162;-84
2022/12/24 20:46:17;;;;;;;47.73;16.10;;;;;;;3.54;100.00;100578.67;1764138;80;21049;-84
2022/12/24 20:49:02;;;;;;;40.03;15.03;;;;;;;3.63;100.00;100578.62;1763596;81;21026;-84
2022/12/24 20:51:47;;;;;;;42.60;15.48;;;;;;;3.68;100.00;100579.82;1769231;79;20980;-84
2022/12/24 20:54:32;;;;;;;46.08;16.07;;;;;;;3.69;100.00;100591.77;1778423;79;20987;-85
2022/12/24 20:57:16;;;;;;;48.50;16.15;;;;;;;3.72;100.00;100598.05;1770855;78;20978;-85
2022/12/24 21:00:01;;;;;;;46.20;16.17;;;;;;;3.75;100.00;100601.63;1773019;78;20998;-84
2022/12/24 21:02:46;;;;;;;48.60;17.12;;;;;;;3.78;100.00;100600.34;1793711;79;21038;-85
2022/12/24 21:05:31;;;;;;;49.83;16.55;;;;;;;3.61;100.00;100597.47;1793591;78;20986;-85
2022/12/24 21:08:15;;;;;;;58.02;18.27;;;;;;;3.50;100.00;100607.19;1793999;79;21014;-85
2022/12/24 21:14:03;;;;;;;;;;;;;;;3.64;100.00;100597.03;1779410;79;21061;-85
2022/12/24 21:16:49;;;;;;;46.40;15.35;;;;;;;3.59;100.00;100594.20;1770285;81;20739;-85
2022/12/24 21:19:33;;;;;;;38.13;13.18;;;;;;;3.58;100.00;100592.53;1776474;78;20999;-85
2022/12/24 21:22:18;;;;;;;34.38;12.63;;;;;;;3.73;100.00;100596.98;1792974;79;21496;-85
2022/12/24 21:25:03;;;;;;;30.70;11.88;;;;;;;3.82;100.00;100595.61;1792978;78;20983;-84
2022/12/24 21:27:49;;;;;;;42.35;12.50;;;;;;;3.77;100.00;100601.42;1794210;79;21030;-85
2022/12/24 21:30:34;;;;;;;37.42;11.15;;;;;;;3.80;100.00;100589.60;1790087;79;21023;-85
2022/12/24 21:33:19;;;;;;;31.45;10.55;;;;;;;3.77;100.00;100586.55;1773091;79;21494;-85
2022/12/24 21:36:05;;;;;;;31.73;11.55;;;;;;;3.75;100.00;100589.47;1771681;78;20978;-85
2022/12/24 21:38:50;;;;;;;29.82;11.75;;;;;;;3.77;100.00;100592.77;1769933;79;21053;-85
2022/12/24 21:41:34;;;;;;;34.58;12.53;;;;;;;3.78;100.00;100590.36;1784612;78;21416;-85
2022/12/24 21:44:19;;;;;;;44.60;13.53;;;;;;;3.79;100.00;100590.67;1777641;79;21080;-85
2022/12/24 21:47:04;;;;;;;40.03;12.75;;;;;;;3.88;100.00;100590.64;1778388;80;21500;-84
2022/12/24 21:54:21;;;;;;;36.35;11.78;;;;;;;3.94;100.00;100589.42;1778018;80;22192;-85
2022/12/24 21:55:38;;;;;;;42.35;12.75;;;;;;;3.93;100.00;100594.52;1778345;80;21485;-85
2022/12/24 21:58:23;;;;;;;36.10;12.60;;;;;;;4.00;100.00;100598.76;1778686;80;20998;-85
2022/12/24 22:01:09;;;;;;;29.25;10.95;;;;;;;3.98;100.00;100592.78;1778367;80;20970;-85
2022/12/24 22:03:53;;;;;;;30.43;11.15;;;;;;;3.97;100.00;100591.65;1778640;79;20990;-85
2022/12/24 22:12:44;;;;;;;30.02;10.13;;;;;;;4.00;100.00;100591.17;1778527;80;20990;-85